createdAt,value
2023-04-11T00:01:58.673Z,7.26
2023-04-11T00:05:01.525Z,7.21
2023-04-11T00:08:03.340Z,7.15
2023-04-11T00:11:06.022Z,7.16
2023-04-11T00:14:09.113Z,7.13
2023-04-11T00:17:12.540Z,7.11
2023-04-11T00:20:14.842Z,7.09
2023-04-11T00:23:16.764Z,7.05
2023-04-11T00:26:18.673Z,7.02
2023-04-11T00:29:20.641Z,6.98
2023-04-11T00:32:23.323Z,6.97
2023-04-11T00:35:25.353Z,6.94
2023-04-11T00:38:27.332Z,6.85
2023-04-11T00:41:29.346Z,6.87
2023-04-11T00:44:31.304Z,6.83
2023-04-11T00:47:34.579Z,6.82
2023-04-11T00:50:41.629Z,6.79
2023-04-11T00:53:45.850Z,6.76
2023-04-11T00:56:47.925Z,6.72
2023-04-11T00:59:51.587Z,6.77
2023-04-11T01:02:54.676Z,6.77
2023-04-11T01:05:56.821Z,6.77
2023-04-11T01:08:58.816Z,6.75
2023-04-11T01:12:01.676Z,6.77
2023-04-11T01:15:04.188Z,6.75
2023-04-11T01:18:07.968Z,6.76
2023-04-11T01:21:10.229Z,6.75
2023-04-11T01:24:12.188Z,6.74
2023-04-11T01:27:14.207Z,6.70
2023-04-11T01:30:16.815Z,6.70
2023-04-11T01:33:18.876Z,6.67
2023-04-11T01:36:21.734Z,6.64
2023-04-11T01:39:25.108Z,6.61
2023-04-11T01:42:27.589Z,6.59
2023-04-11T01:45:30.621Z,6.57
2023-04-11T01:48:34.818Z,6.53
2023-04-11T01:51:37.217Z,6.48
2023-04-11T01:54:39.651Z,6.42
2023-04-11T01:57:41.549Z,6.39
2023-04-11T02:00:43.386Z,6.39
2023-04-11T02:03:46.158Z,6.37
2023-04-11T02:06:48.060Z,6.38
2023-04-11T02:09:50.136Z,6.38
2023-04-11T02:12:52.053Z,6.40
2023-04-11T02:15:54.081Z,6.39
2023-04-11T02:18:56.909Z,6.45
2023-04-11T02:21:58.962Z,6.46
2023-04-11T02:25:00.911Z,6.47
2023-04-11T02:28:08.099Z,6.48
2023-04-11T02:31:10.567Z,6.48
2023-04-11T02:34:12.536Z,6.46
2023-04-11T02:37:14.419Z,6.45
2023-04-11T02:40:16.330Z,6.46
2023-04-11T02:43:18.235Z,6.47
2023-04-11T02:46:20.982Z,6.46
2023-04-11T02:49:23.084Z,6.46
2023-04-11T02:52:26.173Z,6.44
2023-04-11T02:55:28.203Z,6.46
2023-04-11T02:58:30.253Z,6.46
2023-04-11T03:01:38.401Z,6.48
2023-04-11T03:04:40.728Z,6.49
2023-04-11T03:07:48.275Z,6.50
2023-04-11T03:10:50.261Z,6.52
2023-04-11T03:13:52.475Z,6.55
2023-04-11T03:16:54.338Z,6.55
2023-04-11T03:19:56.623Z,6.57
2023-04-11T03:22:59.052Z,6.59
2023-04-11T03:26:01.171Z,6.63
2023-04-11T03:29:03.350Z,6.66
2023-04-11T03:32:13.376Z,6.72
2023-04-11T03:35:17.116Z,6.75
2023-04-11T03:38:21.386Z,6.83
2023-04-11T03:41:23.426Z,6.85
2023-04-11T03:44:26.972Z,6.93
2023-04-11T03:47:29.619Z,7.00
2023-04-11T03:50:32.491Z,7.06
2023-04-11T03:53:37.346Z,7.19
2023-04-11T03:56:52.972Z,7.31
2023-04-11T03:59:58.709Z,7.41
2023-04-11T04:03:01.277Z,7.51
2023-04-11T04:06:03.641Z,7.62
2023-04-11T04:09:05.669Z,7.74
2023-04-11T04:12:21.706Z,7.87
2023-04-11T04:15:40.102Z,8.10
2023-04-11T04:18:43.722Z,8.28
2023-04-11T04:21:46.740Z,8.43
2023-04-11T04:24:51.928Z,8.59
2023-04-11T04:27:58.372Z,8.81
2023-04-11T04:31:04.128Z,8.99
2023-04-11T04:34:21.664Z,9.19
2023-04-11T04:37:28.559Z,9.32
2023-04-11T04:40:50.488Z,9.36
2023-04-11T04:43:58.343Z,9.58
2023-04-11T04:47:29.299Z,9.73
2023-04-11T04:50:32.310Z,9.87
2023-04-11T04:53:34.990Z,9.99
2023-04-11T04:56:37.099Z,10.08
2023-04-11T04:59:39.768Z,10.20
2023-04-11T05:02:48.022Z,10.29
2023-04-11T05:05:51.044Z,10.35
2023-04-11T05:09:00.830Z,10.41
2023-04-11T05:12:03.931Z,10.52
2023-04-11T05:15:11.631Z,10.58
2023-04-11T05:18:15.724Z,10.59
2023-04-11T05:21:18.187Z,10.77
2023-04-11T05:24:23.732Z,10.98
2023-04-11T05:27:27.171Z,11.04
2023-04-11T05:30:29.385Z,11.26
2023-04-11T05:33:31.414Z,11.46
2023-04-11T05:36:33.892Z,11.58
2023-04-11T05:39:36.612Z,11.84
2023-04-11T05:42:38.513Z,12.08
2023-04-11T05:45:41.346Z,12.21
2023-04-11T05:48:43.398Z,12.46
2023-04-11T05:51:45.408Z,12.60
2023-04-11T05:54:47.308Z,12.80
2023-04-11T05:57:49.171Z,12.95
2023-04-11T06:00:50.968Z,13.14
2023-04-11T06:03:53.101Z,13.23
2023-04-11T06:06:56.120Z,13.24
2023-04-11T06:09:57.960Z,13.35
2023-04-11T06:12:59.822Z,13.59
2023-04-11T06:16:01.957Z,13.82
2023-04-11T06:19:04.880Z,13.92
2023-04-11T06:22:06.860Z,14.08
2023-04-11T06:25:10.257Z,14.29
2023-04-11T06:28:12.107Z,14.22
2023-04-11T06:31:14.050Z,14.33
2023-04-11T06:34:15.953Z,14.27
2023-04-11T06:37:18.096Z,14.23
2023-04-11T06:40:20.691Z,14.37
2023-04-11T06:43:22.618Z,14.48
2023-04-11T06:46:24.595Z,14.78
2023-04-11T06:49:27.327Z,14.89
2023-04-11T06:52:29.012Z,14.96
2023-04-11T06:55:31.064Z,14.83
2023-04-11T06:58:33.103Z,14.76
2023-04-11T07:01:39.696Z,14.68
2023-04-11T07:04:41.954Z,14.70
2023-04-11T07:07:43.852Z,14.62
2023-04-11T07:10:45.651Z,14.74
2023-04-11T07:13:47.671Z,14.66
2023-04-11T07:16:49.502Z,14.70
2023-04-11T07:19:51.618Z,14.82
2023-04-11T07:22:54.102Z,14.91
2023-04-11T07:25:56.004Z,15.03
2023-04-11T07:28:59.077Z,15.32
2023-04-11T07:32:01.315Z,15.70
2023-04-11T07:35:03.289Z,15.84
2023-04-11T07:38:05.187Z,16.15
2023-04-11T07:41:08.561Z,16.12
2023-04-11T07:44:10.620Z,16.06
2023-04-11T07:47:12.456Z,16.18
2023-04-11T07:50:14.384Z,16.23
2023-04-11T07:53:16.514Z,16.26
2023-04-11T07:56:18.725Z,16.52
2023-04-11T07:59:20.628Z,16.64
2023-04-11T08:02:23.596Z,16.79
2023-04-11T08:05:25.792Z,17.10
2023-04-11T08:08:27.872Z,17.35
2023-04-11T08:11:29.755Z,17.15
2023-04-11T08:14:31.863Z,17.10
2023-04-11T08:17:38.121Z,16.99
2023-04-11T08:20:40.900Z,16.91
2023-04-11T08:23:42.974Z,17.10
2023-04-11T08:26:45.190Z,17.23
2023-04-11T08:29:47.441Z,17.12
2023-04-11T08:32:49.542Z,17.01
2023-04-11T08:35:51.482Z,17.03
2023-04-11T08:38:55.378Z,16.65
2023-04-11T08:41:57.176Z,16.25
2023-04-11T08:45:03.763Z,15.94
2023-04-11T08:48:07.037Z,15.74
2023-04-11T08:51:08.964Z,15.63
2023-04-11T08:54:12.440Z,15.65
2023-04-11T08:57:33.496Z,15.95
2023-04-11T09:00:35.405Z,16.37
2023-04-11T09:03:52.507Z,16.92
2023-04-11T09:07:00.410Z,17.25
2023-04-11T09:10:22.412Z,16.67
2023-04-11T09:13:26.099Z,16.32
2023-04-11T09:16:28.035Z,16.14
2023-04-11T09:19:34.739Z,16.26
2023-04-11T09:22:36.798Z,16.64
2023-04-11T09:25:44.715Z,16.98
2023-04-11T09:28:53.848Z,17.44
2023-04-11T09:31:57.214Z,17.60
2023-04-11T09:35:16.702Z,17.68
2023-04-11T09:38:36.023Z,17.94
2023-04-11T09:41:37.926Z,17.91
2023-04-11T09:44:39.913Z,17.80
2023-04-11T09:47:44.059Z,17.94
2023-04-11T09:50:48.443Z,18.05
2023-04-11T09:53:51.558Z,17.88
2023-04-11T09:56:53.615Z,17.74
2023-04-11T09:59:56.488Z,17.74
2023-04-11T10:02:59.090Z,17.84
2023-04-11T10:06:04.962Z,17.81
2023-04-11T10:09:16.796Z,17.58
2023-04-11T10:12:31.847Z,17.61
2023-04-11T10:15:33.786Z,17.87
2023-04-11T10:18:36.776Z,17.98
2023-04-11T10:21:39.828Z,18.04
2023-04-11T10:25:20.405Z,18.11
2023-04-11T10:28:35.844Z,17.66
2023-04-11T10:32:05.928Z,17.32
2023-04-11T10:35:16.831Z,17.06
2023-04-11T10:38:37.106Z,16.96
2023-04-11T10:41:39.133Z,16.78
2023-04-11T10:44:41.085Z,16.65
2023-04-11T10:47:43.234Z,16.63
2023-04-11T10:50:45.423Z,16.72
2023-04-11T10:53:47.618Z,16.83
2023-04-11T10:56:50.770Z,16.90
2023-04-11T10:59:52.985Z,17.26
2023-04-11T11:02:55.250Z,17.49
2023-04-11T11:06:03.042Z,17.60
2023-04-11T11:09:22.167Z,17.63
2023-04-11T11:12:24.116Z,17.65
2023-04-11T11:15:26.031Z,17.76
2023-04-11T11:18:27.885Z,17.95
2023-04-11T11:21:34.765Z,17.91
2023-04-11T11:24:36.693Z,18.10
2023-04-11T11:27:38.534Z,18.08
2023-04-11T11:30:52.133Z,17.91
2023-04-11T11:33:58.300Z,17.76
2023-04-11T11:37:06.898Z,17.76
2023-04-11T11:40:13.029Z,17.80
2023-04-11T11:43:16.441Z,17.87
2023-04-11T11:46:18.484Z,17.89
2023-04-11T11:49:20.296Z,17.99
2023-04-11T11:52:41.621Z,18.19
2023-04-11T11:55:43.706Z,17.97
2023-04-11T11:58:45.947Z,17.76
2023-04-11T12:01:47.950Z,17.49
2023-04-11T12:04:50.305Z,17.28
2023-04-11T12:07:55.851Z,17.17
2023-04-11T12:10:57.702Z,17.23
2023-04-11T12:14:01.053Z,17.34
2023-04-11T12:17:03.003Z,17.34
2023-04-11T12:20:07.581Z,17.45
2023-04-11T12:23:09.461Z,17.51
2023-04-11T12:26:11.431Z,17.52
2023-04-11T12:29:13.556Z,17.50
2023-04-11T12:32:15.370Z,17.64
2023-04-11T12:35:17.407Z,17.55
2023-04-11T12:38:19.221Z,17.58
2023-04-11T12:41:32.108Z,17.56
2023-04-11T12:44:34.564Z,17.41
2023-04-11T12:47:37.067Z,17.36
2023-04-11T12:50:38.829Z,17.39
2023-04-11T12:53:40.723Z,17.20
2023-04-11T12:56:42.564Z,17.14
2023-04-11T12:59:44.501Z,17.23
2023-04-11T13:02:47.007Z,17.09
2023-04-11T13:05:49.105Z,17.08
2023-04-11T13:08:51.112Z,17.08
2023-04-11T13:11:53.040Z,16.98
2023-04-11T13:14:56.875Z,16.96
2023-04-11T13:17:58.773Z,16.86
2023-04-11T13:21:01.037Z,16.87
2023-04-11T13:24:03.762Z,16.90
2023-04-11T13:27:05.967Z,16.83
2023-04-11T13:30:10.010Z,16.82
2023-04-11T13:33:11.976Z,16.76
2023-04-11T13:36:13.854Z,16.80
2023-04-11T13:39:16.102Z,16.75
2023-04-11T13:42:18.009Z,16.65
2023-04-11T13:45:20.094Z,16.55
2023-04-11T13:48:21.925Z,16.44
2023-04-11T13:51:23.882Z,16.42
2023-04-11T13:54:26.292Z,16.33
2023-04-11T13:57:28.636Z,16.30
2023-04-11T14:00:30.468Z,16.32
2023-04-11T14:03:33.880Z,16.23
2023-04-11T14:06:37.666Z,16.23
2023-04-11T14:09:39.605Z,16.20
2023-04-11T14:12:41.667Z,16.19
2023-04-11T14:15:43.637Z,16.14
2023-04-11T14:18:46.095Z,16.03
2023-04-11T14:21:48.435Z,16.00
2023-04-11T14:24:50.454Z,15.96
2023-04-11T14:27:52.399Z,15.87
2023-04-11T14:30:56.023Z,15.85
2023-04-11T14:33:58.162Z,15.86
2023-04-11T14:37:00.223Z,15.86
2023-04-11T14:40:05.028Z,15.77
2023-04-11T14:43:07.096Z,15.80
2023-04-11T14:46:09.026Z,15.77
2023-04-11T14:49:10.994Z,15.72
2023-04-11T14:52:12.917Z,15.64
2023-04-11T14:55:14.864Z,15.63
2023-04-11T14:58:17.187Z,15.56
2023-04-11T15:01:20.272Z,15.51
2023-04-11T15:04:22.365Z,15.52
2023-04-11T15:07:24.318Z,15.52
2023-04-11T15:10:26.595Z,15.47
2023-04-11T15:13:28.453Z,15.41
2023-04-11T15:16:30.377Z,15.42
2023-04-11T15:19:32.343Z,15.42
2023-04-11T15:22:34.298Z,15.38
2023-04-11T15:25:36.155Z,15.34
2023-04-11T15:28:39.707Z,15.32
2023-04-11T15:31:41.725Z,15.23
2023-04-11T15:34:43.598Z,15.21
2023-04-11T15:37:45.691Z,15.19
2023-04-11T15:40:51.547Z,15.17
2023-04-11T15:43:53.441Z,15.09
2023-04-11T15:46:55.628Z,15.06
2023-04-11T15:49:59.131Z,15.10
2023-04-11T15:53:01.081Z,15.11
2023-04-11T15:56:07.444Z,15.02
2023-04-11T15:59:12.921Z,15.01
2023-04-11T16:02:15.488Z,14.99
2023-04-11T16:05:17.850Z,14.93
2023-04-11T16:08:21.981Z,14.94
2023-04-11T16:11:24.139Z,14.87
2023-04-11T16:14:26.175Z,14.83
2023-04-11T16:17:28.253Z,14.77
2023-04-11T16:20:33.146Z,14.79
2023-04-11T16:23:35.052Z,14.77
2023-04-11T16:26:37.036Z,14.69
2023-04-11T16:29:39.013Z,14.68
2023-04-11T16:32:40.950Z,14.70
2023-04-11T16:35:42.944Z,14.67
2023-04-11T16:38:44.937Z,14.61
2023-04-11T16:41:47.490Z,14.60
2023-04-11T16:44:49.439Z,14.53
2023-04-11T16:47:51.402Z,14.49
2023-04-11T16:50:53.386Z,14.42
2023-04-11T16:53:55.381Z,14.41
2023-04-11T16:56:57.494Z,14.35
2023-04-11T16:59:59.330Z,14.34
2023-04-11T17:03:01.364Z,14.27
2023-04-11T17:06:03.668Z,14.21
2023-04-11T17:09:09.447Z,14.19
2023-04-11T17:12:11.855Z,14.13
2023-04-11T17:15:13.819Z,14.10
2023-04-11T17:18:16.026Z,14.04
2023-04-11T17:21:18.241Z,14.01
2023-04-11T17:24:20.194Z,13.97
2023-04-11T17:27:22.434Z,13.97
2023-04-11T17:30:24.387Z,13.95
2023-04-11T17:33:26.194Z,13.90
2023-04-11T17:36:28.970Z,13.88
2023-04-11T17:39:30.777Z,13.86
2023-04-11T17:42:32.618Z,13.86
2023-04-11T17:45:35.070Z,13.80
2023-04-11T17:48:39.724Z,13.80
2023-04-11T17:51:48.794Z,13.78
2023-04-11T17:54:54.324Z,13.75
2023-04-11T17:57:56.332Z,13.74
2023-04-11T18:00:58.343Z,13.73
2023-04-11T18:04:01.942Z,13.68
2023-04-11T18:07:04.147Z,13.67
2023-04-11T18:10:06.993Z,13.64
2023-04-11T18:13:09.248Z,13.62
2023-04-11T18:16:11.626Z,13.59
2023-04-11T18:19:13.963Z,13.59
2023-04-11T18:22:15.932Z,13.60
2023-04-11T18:25:18.267Z,13.58
2023-04-11T18:28:20.216Z,13.51
2023-04-11T18:31:22.265Z,13.57
2023-04-11T18:34:24.209Z,13.57
2023-04-11T18:37:29.160Z,13.53
2023-04-11T18:40:31.398Z,13.48
2023-04-11T18:43:33.734Z,13.46
2023-04-11T18:46:35.785Z,13.48
2023-04-11T18:49:37.814Z,13.43
2023-04-11T18:52:40.081Z,13.42
2023-04-11T18:55:42.065Z,13.45
2023-04-11T18:58:46.763Z,13.43
2023-04-11T19:01:51.214Z,13.44
2023-04-11T19:04:55.611Z,13.43
2023-04-11T19:07:59.850Z,13.39
2023-04-11T19:11:01.982Z,13.39
2023-04-11T19:14:04.959Z,13.39
2023-04-11T19:17:06.860Z,13.39
2023-04-11T19:20:16.614Z,13.34
2023-04-11T19:23:18.636Z,13.38
2023-04-11T19:26:21.601Z,13.37
2023-04-11T19:29:24.540Z,13.36
2023-04-11T19:32:26.678Z,13.33
2023-04-11T19:35:28.579Z,13.36
2023-04-11T19:38:30.483Z,13.37
2023-04-11T19:41:32.432Z,13.38
2023-04-11T19:44:34.410Z,13.37
2023-04-11T19:47:36.440Z,13.38
2023-04-11T19:50:38.444Z,13.39
2023-04-11T19:53:40.327Z,13.40
2023-04-11T19:56:45.458Z,13.38
2023-04-11T19:59:47.403Z,13.39
2023-04-11T20:02:49.610Z,13.40
2023-04-11T20:05:51.623Z,13.40
2023-04-11T20:08:54.231Z,13.38
2023-04-11T20:11:56.812Z,13.31
2023-04-11T20:14:58.762Z,13.37
2023-04-11T20:18:00.806Z,13.33
2023-04-11T20:21:06.335Z,13.31
2023-04-11T20:24:09.696Z,13.30
2023-04-11T20:27:11.545Z,13.25
2023-04-11T20:30:14.798Z,13.23
2023-04-11T20:33:16.675Z,13.17
2023-04-11T20:36:18.734Z,13.18
2023-04-11T20:39:20.633Z,13.19
2023-04-11T20:42:22.948Z,13.14
2023-04-11T20:45:27.924Z,13.07
2023-04-11T20:48:29.995Z,13.07
2023-04-11T20:51:31.897Z,13.05
2023-04-11T20:54:33.776Z,13.05
2023-04-11T20:57:35.759Z,13.02
2023-04-11T21:00:39.890Z,13.01
2023-04-11T21:03:44.375Z,13.01
2023-04-11T21:06:46.499Z,13.05
2023-04-11T21:09:49.163Z,12.99
2023-04-11T21:12:54.583Z,13.06
2023-04-11T21:15:58.594Z,13.07
2023-04-11T21:19:00.692Z,13.06
2023-04-11T21:22:03.380Z,13.03
2023-04-11T21:25:05.367Z,13.00
2023-04-11T21:28:07.281Z,13.01
2023-04-11T21:31:09.159Z,12.97
2023-04-11T21:34:11.124Z,12.95
2023-04-11T21:37:12.941Z,12.98
2023-04-11T21:40:14.890Z,12.95
2023-04-11T21:43:17.032Z,12.92
2023-04-11T21:46:18.896Z,12.98
2023-04-11T21:49:21.035Z,12.96
2023-04-11T21:52:22.930Z,12.95
2023-04-11T21:55:24.784Z,12.94
2023-04-11T21:58:29.913Z,12.88
2023-04-11T22:01:32.076Z,12.88
2023-04-11T22:04:47.360Z,12.90
2023-04-11T22:08:10.581Z,12.89
2023-04-11T22:11:14.314Z,12.89
2023-04-11T22:14:16.521Z,12.89
2023-04-11T22:17:22.318Z,12.92
2023-04-11T22:20:24.202Z,12.89
2023-04-11T22:23:26.140Z,12.86
2023-04-11T22:26:29.599Z,12.81
2023-04-11T22:29:31.666Z,12.83
2023-04-11T22:32:34.084Z,12.82
2023-04-11T22:35:36.098Z,12.80
2023-04-11T22:38:39.229Z,12.88
2023-04-11T22:41:41.173Z,12.83
2023-04-11T22:44:43.004Z,12.93
2023-04-11T22:47:45.980Z,12.94
2023-04-11T22:50:52.796Z,12.94
2023-04-11T22:53:55.607Z,12.90
2023-04-11T22:56:57.734Z,12.93
2023-04-11T22:59:59.577Z,12.92
2023-04-11T23:03:01.470Z,12.92
2023-04-11T23:06:03.393Z,12.84
2023-04-11T23:09:05.787Z,12.89
2023-04-11T23:12:08.389Z,12.87
2023-04-11T23:15:11.335Z,12.86
2023-04-11T23:18:13.809Z,12.86
2023-04-11T23:21:15.745Z,12.86
2023-04-11T23:24:17.633Z,12.83
2023-04-11T23:27:22.978Z,12.71
2023-04-11T23:30:25.357Z,12.68
2023-04-11T23:33:27.219Z,12.61
2023-04-11T23:36:29.407Z,12.50
2023-04-11T23:39:31.255Z,12.48
2023-04-11T23:42:33.143Z,12.39
2023-04-11T23:45:35.084Z,12.31
2023-04-11T23:48:37.156Z,12.30
2023-04-11T23:51:39.309Z,12.19
2023-04-11T23:54:41.684Z,12.12
2023-04-11T23:57:43.669Z,12.15
